James Reserve, California Weather observations

Data are for 10 minute period ending at time listed.
 Day   Time   Solar   Ave.   Ave.  Ave.  Vector  Max.   Baro.   Total    
  of    of     Rad.   Air    Rel.  Wind   Wind   Wind  Press.  Precip.   
Year   Day            Temp.  Hum.  Speed  Dir.   Gust                    
2014   (PST)  Kw/m2    F      %     mph   deg.    mph    mb.     in.     
-------------------------------------------------------------------------
 292    9:50   0.05   65.6    42    1.0   227     2.6   837.0    0.00 
 292   10:00   0.05   65.7    38    0.7   335     1.7   837.0    0.00 
 292   10:10   0.18   65.7    37    0.6   186     1.9   837.0    0.00 
 292   10:20   0.17   66.3    39    0.6   241     1.9   837.0    0.00 
 292   10:30   0.18   66.6    37    0.9    35     2.0   837.0    0.00 
 292   10:40   0.06   66.8    36    0.8     4     2.3   837.0    0.00 
 292   10:50   0.11   67.7    36    0.8     5     2.3   837.0    0.00 
 292   11:00   0.37   67.5    40    0.7    93     1.8   837.0    0.00 
 292   11:10   0.81   68.5    38    0.8   267     2.1   837.0    0.00 
 292   11:20   0.78   67.8    38    0.9   341     3.0   837.0    0.00 
 292   11:30   0.72   68.8    38    0.8   333     1.6   836.0    0.00 
 292   11:40   0.80   69.4    38    0.9   266     2.1   836.0    0.00 
 292   11:50   0.81   68.5    39    0.9   189     3.0   836.0    0.00 
 292   12:00   0.80   69.3    40    0.9   202     2.4   836.0    0.00 
 292   12:10   0.80   68.9    40    0.9   227     1.9   836.0    0.00 
 292   12:20   0.76   68.0    40    0.8   164     2.5   836.0    0.00 
 292   12:30   0.82   69.3    38    0.8   218     1.8   836.0    0.00 
 292   12:40   0.83   69.5    37    0.9   220     2.2   836.0    0.00 
 292   12:50   0.78   69.6    35    0.8   345     2.4   836.0    0.00 
 292   13:00   0.59   68.2    38    0.9   354     2.5   836.0    0.00 
 292   13:10   0.74   68.7    40    0.7   316     1.6   836.0    0.00 
 292   13:20   0.68   68.3    41    0.7   214     1.6   836.0    0.00 
 292   13:30   0.68   67.1    43    0.8   270     1.6   836.0    0.00 
 292   13:40   0.65   66.8    44    0.8   248     2.3   836.0    0.00 
 292   13:50   0.61   66.7    43    0.6   207     1.8   836.0    0.00 
 292   14:00   0.59   67.2    44    0.8   178     2.7   836.0    0.00 
 292   14:10   0.55   66.6    45    0.8   161     1.8   836.0    0.00 
 292   14:20   0.11   65.9    46    0.8   201     1.6   836.0    0.00 
 292   14:30   0.06   65.0    48    1.0   161     2.4   836.0    0.00 
 292   14:40   0.05   65.0    49    0.7   172     1.5   835.0    0.00 
 292   14:50   0.12   64.8    49    0.9   192     2.8   836.0    0.00 
 292   15:00   0.10   64.2    50    0.7   140     1.8   836.0    0.00 
 292   15:10   0.04   63.8    51    0.7   196     2.2   836.0    0.00 
 292   15:20   0.04   63.3    51    0.6   203     1.3   836.0    0.00 
 292   15:30   0.04   63.1    51    0.8   131     2.6   836.0    0.00 
 292   15:40   0.09   63.0    52    0.6   141     1.8   836.0    0.00 
 292   15:50   0.04   62.8    54    0.7   219     1.7   836.0    0.00 
 292   16:00   0.05   62.4    54    0.4   328     1.3   836.0    0.00 
 292   16:10   0.04   61.7    56    0.3   339     1.2   836.0    0.00 
 292   16:20   0.02   60.9    57    0.4   196     1.5   836.0    0.00 
 292   16:30   0.01   60.0    59    0.3   297     0.5   836.0    0.00 
 292   16:40   0.01   59.3    61    0.2   288     0.5   836.0    0.00 
 292   16:50   0.01   58.4    63    0.2   319     0.3   836.0    0.00 
 292   17:00   0.00   57.4    65    0.1   254     0.4   836.0    0.00 
 292   17:10   0.00   56.4    67    0.2   350     0.4   836.0    0.00 
 292   17:20   0.00   55.8    67    0.2   359     0.5   836.0    0.00 
 292   17:30   0.00   54.9    68    0.2    22     0.3   836.0    0.00 
 292   17:40   0.00   54.2    68    0.2   344     0.5   836.0    0.00 
 292   17:50   0.00   53.5    69    0.2   346     0.5   836.0    0.00 
 292   18:00   0.00   52.9    69    0.3   358     0.6   836.0    0.00 
 292   18:10   0.00   52.3    70    0.2     0     0.5   836.0    0.00 
 292   18:20   0.00   51.9    69    0.3   356     0.6   836.0    0.00 
 292   18:30   0.00   51.4    69    0.2   337     0.4   836.0    0.00 
 292   18:40   0.00   50.8    70    0.3    23     0.5   836.0    0.00 
 292   18:50   0.00   50.5    71    0.3    15     0.5   836.0    0.00 
 292   19:00   0.00   50.3    71    0.3    18     0.4   836.0    0.00 
 292   19:10   0.00   49.9    70    0.2     1     0.5   836.0    0.00 
 292   19:20   0.00   49.6    69    0.3    26     0.4   836.0    0.00 
 292   19:30   0.00   49.3    70    0.3    23     0.5   837.0    0.00 
 292   19:40   0.00   49.2    69    0.2     4     0.4   837.0    0.00 
 292   19:50   0.00   48.9    69    0.2    33     0.4   837.0    0.00 
 292   20:00   0.00   48.6    70    0.2    29     0.4   837.0    0.00 
 292   20:10   0.00   48.4    70    0.2     3     0.4   837.0    0.00 
 292   20:20   0.00   48.2    71    0.2    29     0.4   837.0    0.00 
 292   20:30   0.00   48.1    71    0.3    22     0.5   837.0    0.00 
 292   20:40   0.00   47.9    71    0.2   350     0.5   837.0    0.00 
 292   20:50   0.00   47.7    72    0.4    42     0.6   837.0    0.00 
 292   21:00   0.00   47.6    72    0.2     3     0.4   837.0    0.00 
 292   21:10   0.00   47.3    72    0.2    11     0.5   837.0    0.00 
 292   21:20   0.00   47.2    73    0.3    40     0.4   837.0    0.00 
 292   21:30   0.00   47.2    73    0.2     3     0.3   837.0    0.00 
 292   21:40   0.00   47.1    73    0.3    33     0.5   837.0    0.00 
 292   21:50   0.00   46.9    74    0.2     6     0.3   837.0    0.00 
 292   22:00   0.00   46.7    74    0.2    17     0.4   837.0    0.00 
 292   22:10   0.00   46.6    74    0.2    25     0.4   837.0    0.00 
 292   22:20   0.00   46.4    75    0.2     2     0.3   837.0    0.00 
 292   22:30   0.00   46.3    75    0.2    27     0.3   837.0    0.00 
 292   22:40   0.00   46.3    75    0.2    18     0.4   837.0    0.00 
 292   22:50   0.00   46.1    76    0.2    10     0.4   837.0    0.00 
 292   23:00   0.00   46.0    76    0.2     5     0.3   837.0    0.00 
 292   23:10   0.00   45.9    76    0.2    29     0.4   837.0    0.00 
 292   23:20   0.00   45.9    77    0.2     9     0.4   837.0    0.00 
 292   23:30   0.00   45.7    76    0.3    26     0.5   837.0    0.00 
 292   23:40   0.00   45.8    77    0.2    21     0.3   837.0    0.00 
 292   23:50   0.00   45.7    78    0.3    11     0.5   837.0    0.00 
 293    0:00   0.00   45.6    78    0.2    16     0.4   837.0    0.00 
 293    0:10   0.00   45.6    79    0.2    20     0.3   837.0    0.00 
 293    0:20   0.00   45.5    79    0.2    36     0.3   837.0    0.00 
 293    0:30   0.00   45.3    78    0.2    28     0.4   837.0    0.00 
 293    0:40   0.00   45.4    79    0.2    13     0.3   837.0    0.00 
 293    0:50   0.00   45.5    78    0.2     6     0.4   837.0    0.00 
 293    1:00   0.00   45.5    79    0.2    13     0.4   837.0    0.00 
 293    1:10   0.00   45.6    78    0.3    32     0.5   837.0    0.00 
 293    1:20   0.00   45.9    78    0.3    18     0.4   837.0    0.00 
 293    1:30   0.00   46.0    78    0.3     7     0.4   837.0    0.00 
 293    1:40   0.00   46.0    78    0.3    17     0.6   837.0    0.00 
 293    1:50   0.00   46.0    78    0.3    19     0.6   837.0    0.00 
 293    2:00   0.00   45.9    79    0.3    27     0.6   837.0    0.00 
 293    2:10   0.00   45.9    79    0.3    28     0.7   837.0    0.00 
 293    2:20   0.00   45.7    80    0.3    30     0.5   837.0    0.00 
 293    2:30   0.00   45.7    80    0.3    32     0.5   837.0    0.00 
 293    2:40   0.00   45.8    80    0.3    20     0.6   837.0    0.00 
 293    2:50   0.00   45.8    80    0.3    23     0.5   837.0    0.00 
 293    3:00   0.00   46.0    80    0.3    16     0.5   837.0    0.00 
 293    3:10   0.00   45.9    80    0.3    23     0.5   837.0    0.00 
 293    3:20   0.00   46.0    80    0.3    15     0.5   837.0    0.00 
 293    3:30   0.00   45.8    80    0.2    21     0.5   837.0    0.00 
 293    3:40   0.00   45.6    80    0.3    31     0.5   837.0    0.00 
 293    3:50   0.00   45.5    81    0.3    24     0.4   837.0    0.00 
 293    4:00   0.00   45.5    81    0.3    17     0.5   837.0    0.00 
 293    4:10   0.00   45.3    82    0.2     8     0.4   837.0    0.00 
 293    4:20   0.00   45.2    82    0.2    20     0.4   837.0    0.00 
 293    4:30   0.00   45.1    82    0.2     9     0.4   837.0    0.00 
 293    4:40   0.00   45.0    82    0.2    13     0.4   837.0    0.00 
 293    4:50   0.00   44.8    82    0.2    14     0.3   837.0    0.00 
 293    5:00   0.00   44.7    83    0.2    24     0.3   837.0    0.00 
 293    5:10   0.00   44.6    83    0.2    19     0.4   837.0    0.00 
 293    5:20   0.00   44.4    83    0.2    17     0.4   837.0    0.00 
 293    5:30   0.00   44.5    82    0.2    10     0.3   837.0    0.00 
 293    5:40   0.00   44.6    82    0.2    17     0.4   837.0    0.00 
 293    5:50   0.00   44.7    82    0.2     9     0.4   837.0    0.00 
 293    6:00   0.00   44.6    82    0.2     8     0.3   837.0    0.00 
 293    6:10   0.00   44.5    82    0.3    24     0.5   837.0    0.00 
 293    6:20   0.00   44.5    82    0.2    24     0.4   837.0    0.00 
 293    6:30   0.01   44.7    81    0.3    29     0.5   837.0    0.00 
 293    6:40   0.01   44.9    80    0.3    39     0.5   837.0    0.00 
 293    6:50   0.01   45.0    80    0.3    37     0.5   837.0    0.00 
 293    7:00   0.01   45.2    80    0.3    30     0.5   837.0    0.00 
 293    7:10   0.02   45.5    79    0.4    41     0.6   838.0    0.00 
 293    7:20   0.02   45.9    78    0.4    43     0.6   838.0    0.00 
 293    7:30   0.02   46.5    77    0.6    49     0.8   838.0    0.00 
 293    7:40   0.03   47.3    76    0.5    50     0.8   838.0    0.00 
 293    7:50   0.03   48.1    74    0.7    51     0.9   838.0    0.00 
 293    8:00   0.03   48.9    73    0.6    49     1.1   838.0    0.00 
 293    8:10   0.03   49.8    72    0.5    50     1.0   838.0    0.00 
 293    8:20   0.04   50.6    70    0.5    56     0.9   838.0    0.00 
 293    8:30   0.05   51.7    69    0.5    47     1.0   838.0    0.00 
 293    8:40   0.04   53.4    67    0.6    42     2.1   838.0    0.00 
 293    8:50   0.04   55.8    62    0.4    80     0.8   838.0    0.00 
 293    9:00   0.04   57.4    58    0.4    33     1.0   838.0    0.00 
 293    9:10   0.04   59.9    53    0.5   132     1.3   838.0    0.00 
 293    9:20   0.04   62.7    46    0.7   102     1.9   838.0    0.00 
 293    9:30   0.04   64.4    41    0.7   165     1.8   838.0    0.00 
 293    9:40   0.04   64.9    40    0.9   131     1.9   838.0    0.00 

Return to James Reserve graphs page.


Western Regional Climate Center,wrcc@dri.edu